Zanoni, Missouri
Current Conditions -  °F | °C
As of 8:53 PM on Monday 22 Dec 2014 (Local Time) from KBPK Reporting Station
Overcast Overcast  
Wind Chill: 49°   Ceiling: 3600
Heat Index: 49°   Visibility: 8mi
Dew Point: 48°   Wind: 3mph
Humidity: 97%   Direction: 270°W
Pressure: 29.59"   Gusts: NA
Location:  36.69°N, 92.33°W
Report Text: KBPK 230253Z AUTO 27003KT 8SM FEW025 OVC036 09/09 A2959 RMK AO2 SLP020 P0001 60001 T00940089 51006
Loading
Personal Weather Stations






























Interactive Weather Map New forecast layout! Learn more

10-Day Weather Forecast

Advertisements
Track Severe Weather on mobile